createdAt,value
2023-05-12T00:01:14.348Z,95758.59
2023-05-12T00:03:42.442Z,95756.97
2023-05-12T00:06:12.494Z,95746.78
2023-05-12T00:08:40.514Z,95742.75
2023-05-12T00:11:08.595Z,95741.94
2023-05-12T00:13:36.696Z,95736.50
2023-05-12T00:16:05.335Z,95733.19
2023-05-12T00:18:36.146Z,95741.84
2023-05-12T00:21:04.132Z,95736.34
2023-05-12T00:23:33.515Z,95735.19
2023-05-12T00:26:01.495Z,95736.84
2023-05-12T00:28:29.514Z,95735.69
2023-05-12T00:30:57.954Z,95728.16
2023-05-12T00:33:25.898Z,95739.59
2023-05-12T00:35:53.852Z,95724.19
2023-05-12T00:38:21.796Z,95734.44
2023-05-12T00:40:51.135Z,95725.31
2023-05-12T00:43:19.140Z,95726.88
2023-05-12T00:45:47.526Z,95728.84
2023-05-12T00:48:15.657Z,95731.69
2023-05-12T00:50:43.987Z,95720.25
2023-05-12T00:53:12.585Z,95720.25
2023-05-12T00:55:40.581Z,95723.41
2023-05-12T00:58:09.922Z,95725.41
2023-05-12T01:00:37.918Z,95724.13
2023-05-12T01:03:06.273Z,95726.53
2023-05-12T01:05:54.053Z,95711.06
2023-05-12T01:08:23.220Z,95728.84
2023-05-12T01:10:51.312Z,95715.75
2023-05-12T01:13:20.838Z,95716.97
2023-05-12T01:15:50.007Z,95717.34
2023-05-12T01:18:22.714Z,95723.75
2023-05-12T01:20:53.689Z,95722.19
2023-05-12T01:23:33.362Z,95717.44
2023-05-12T01:26:06.266Z,95714.25
2023-05-12T01:28:34.728Z,95715.41
2023-05-12T01:31:04.775Z,95709.84
2023-05-12T01:33:34.456Z,95716.13
2023-05-12T01:36:02.529Z,95718.97
2023-05-12T01:38:30.493Z,95705.50
2023-05-12T01:40:58.783Z,95711.38
2023-05-12T01:43:28.157Z,95709.09
2023-05-12T01:45:56.108Z,95709.97
2023-05-12T01:48:26.912Z,95717.13
2023-05-12T01:50:54.857Z,95709.19
2023-05-12T01:53:22.977Z,95710.38
2023-05-12T01:55:50.987Z,95717.88
2023-05-12T01:58:20.276Z,95719.09
2023-05-12T02:00:49.606Z,95710.84
2023-05-12T02:03:22.341Z,95717.50
2023-05-12T02:05:50.332Z,95713.56
2023-05-12T02:08:18.293Z,95715.13
2023-05-12T02:10:46.848Z,95715.94
2023-05-12T02:13:15.421Z,95714.34
2023-05-12T02:15:46.502Z,95721.06
2023-05-12T02:18:15.815Z,95711.16
2023-05-12T02:20:43.693Z,95720.56
2023-05-12T02:23:13.620Z,95724.63
2023-05-12T02:25:44.387Z,95718.25
2023-05-12T02:28:12.321Z,95725.81
2023-05-12T02:30:48.658Z,95731.72
2023-05-12T02:33:19.071Z,95719.91
2023-05-12T02:35:47.557Z,95723.81
2023-05-12T02:38:15.753Z,95716.69
2023-05-12T02:40:44.171Z,95713.88
2023-05-12T02:43:12.103Z,95716.19
2023-05-12T02:45:41.380Z,95718.97
2023-05-12T02:48:09.471Z,95719.88
2023-05-12T02:50:38.929Z,95714.28
2023-05-12T02:53:06.886Z,95718.28
2023-05-12T02:55:34.775Z,95709.59
2023-05-12T02:58:02.952Z,95712.00
2023-05-12T03:00:30.853Z,95718.34
2023-05-12T03:02:58.807Z,95718.28
2023-05-12T03:05:26.852Z,95713.63
2023-05-12T03:07:56.240Z,95713.56
2023-05-12T03:10:24.218Z,95709.28
2023-05-12T03:12:52.168Z,95708.00
2023-05-12T03:15:20.082Z,95709.25
2023-05-12T03:17:47.979Z,95715.16
2023-05-12T03:20:17.619Z,95714.38
2023-05-12T03:22:53.353Z,95721.53
2023-05-12T03:25:22.694Z,95701.97
2023-05-12T03:27:50.641Z,95706.41
2023-05-12T03:30:19.034Z,95702.41
2023-05-12T03:32:47.611Z,95707.22
2023-05-12T03:35:15.625Z,95716.84
2023-05-12T03:37:46.572Z,95710.97
2023-05-12T03:40:18.654Z,95713.75
2023-05-12T03:42:48.335Z,95712.97
2023-05-12T03:45:16.502Z,95711.78
2023-05-12T03:47:44.756Z,95704.31
2023-05-12T03:50:12.949Z,95711.84
2023-05-12T03:52:41.697Z,95701.97
2023-05-12T03:55:10.696Z,95702.38
2023-05-12T03:57:38.763Z,95700.41
2023-05-12T04:00:09.373Z,95702.00
2023-05-12T04:02:39.255Z,95712.25
2023-05-12T04:05:08.638Z,95701.59
2023-05-12T04:07:36.800Z,95703.53
2023-05-12T04:10:05.135Z,95711.41
2023-05-12T04:12:32.972Z,95708.28
2023-05-12T04:15:01.341Z,95710.22
2023-05-12T04:17:30.676Z,95720.91
2023-05-12T04:19:58.618Z,95719.34
2023-05-12T04:22:26.689Z,95724.88
2023-05-12T04:24:54.579Z,95719.34
2023-05-12T04:27:25.454Z,95722.47
2023-05-12T04:29:53.356Z,95724.03
2023-05-12T04:32:24.447Z,95724.06
2023-05-12T04:34:56.179Z,95726.00
2023-05-12T04:37:24.069Z,95729.16
2023-05-12T04:39:52.124Z,95732.72
2023-05-12T04:42:20.029Z,95732.75
2023-05-12T04:44:47.932Z,95734.31
2023-05-12T04:47:15.863Z,95738.22
2023-05-12T04:49:43.738Z,95738.63
2023-05-12T04:52:13.119Z,95731.88
2023-05-12T04:54:41.007Z,95744.88
2023-05-12T04:57:09.335Z,95741.31
2023-05-12T04:59:38.788Z,95740.53
2023-05-12T05:02:07.907Z,95751.59
2023-05-12T05:04:35.824Z,95746.88
2023-05-12T05:07:03.719Z,95754.00
2023-05-12T05:09:34.935Z,95746.09
2023-05-12T05:12:04.037Z,95752.41
2023-05-12T05:14:32.132Z,95750.06
2023-05-12T05:17:01.016Z,95748.47
2023-05-12T05:19:39.118Z,95759.47
2023-05-12T05:22:15.996Z,95750.03
2023-05-12T05:24:45.375Z,95754.38
2023-05-12T05:27:13.875Z,95752.41
2023-05-12T05:29:41.834Z,95753.19
2023-05-12T05:32:09.776Z,95759.13
2023-05-12T05:34:37.842Z,95757.59
2023-05-12T05:37:06.085Z,95761.91
2023-05-12T05:39:33.964Z,95762.72
2023-05-12T05:42:03.156Z,95769.03
2023-05-12T05:44:31.518Z,95765.06
2023-05-12T05:46:59.522Z,95769.00
2023-05-12T05:49:27.413Z,95770.97
2023-05-12T05:51:55.349Z,95768.19
2023-05-12T05:54:24.580Z,95771.75
2023-05-12T05:56:52.495Z,95771.75
2023-05-12T05:59:21.688Z,95775.31
2023-05-12T06:01:49.559Z,95774.91
2023-05-12T06:04:17.865Z,95771.38
2023-05-12T06:06:45.802Z,95775.75
2023-05-12T06:09:15.465Z,95782.41
2023-05-12T06:11:43.319Z,95787.56
2023-05-12T06:14:11.493Z,95778.84
2023-05-12T06:16:41.077Z,95795.09
2023-05-12T06:19:09.338Z,95793.47
2023-05-12T06:21:37.193Z,95789.50
2023-05-12T06:24:05.338Z,95791.47
2023-05-12T06:26:33.184Z,95792.63
2023-05-12T06:29:01.036Z,95790.25
2023-05-12T06:31:28.900Z,95795.44
2023-05-12T06:33:58.367Z,95795.81
2023-05-12T06:36:26.292Z,95800.94
2023-05-12T06:38:54.164Z,95794.25
2023-05-12T06:41:22.035Z,95804.91
2023-05-12T06:43:53.567Z,95796.22
2023-05-12T06:46:21.729Z,95797.31
2023-05-12T06:48:49.602Z,95796.09
2023-05-12T06:51:21.306Z,95793.69
2023-05-12T06:53:49.195Z,95799.66
2023-05-12T06:56:17.630Z,95791.69
2023-05-12T06:58:45.513Z,95794.75
2023-05-12T07:01:15.703Z,95792.31
2023-05-12T07:03:43.891Z,95791.16
2023-05-12T07:06:14.933Z,95803.47
2023-05-12T07:08:44.193Z,95794.69
2023-05-12T07:11:12.117Z,95795.56
2023-05-12T07:13:40.069Z,95793.91
2023-05-12T07:16:08.343Z,95791.41
2023-05-12T07:18:36.247Z,95787.38
2023-05-12T07:21:04.154Z,95788.09
2023-05-12T07:23:34.156Z,95792.59
2023-05-12T07:26:04.259Z,95794.50
2023-05-12T07:28:36.057Z,95786.50
2023-05-12T07:31:04.354Z,95790.47
2023-05-12T07:33:32.928Z,95790.38
2023-05-12T07:36:01.492Z,95791.28
2023-05-12T07:38:30.221Z,95789.09
2023-05-12T07:40:58.157Z,95787.00
2023-05-12T07:43:27.553Z,95782.53
2023-05-12T07:45:56.295Z,95780.16
2023-05-12T07:48:24.216Z,95781.94
2023-05-12T07:50:52.171Z,95780.66
2023-05-12T07:53:20.130Z,95775.13
2023-05-12T07:55:48.038Z,95780.84
2023-05-12T07:58:16.146Z,95774.72
2023-05-12T08:00:45.645Z,95781.56
2023-05-12T08:03:14.243Z,95786.19
2023-05-12T08:05:42.260Z,95785.00
2023-05-12T08:08:15.958Z,95790.59
2023-05-12T08:10:44.347Z,95797.00
2023-05-12T08:13:12.418Z,95796.03
2023-05-12T08:15:40.326Z,95793.47
2023-05-12T08:18:09.702Z,95797.41
2023-05-12T08:20:37.750Z,95795.84
2023-05-12T08:23:05.792Z,95794.66
2023-05-12T08:25:34.960Z,95795.06
2023-05-12T08:28:02.956Z,95796.72
2023-05-12T08:30:30.892Z,95805.19
2023-05-12T08:32:59.085Z,95801.28
2023-05-12T08:35:28.501Z,95799.91
2023-05-12T08:37:57.390Z,95800.66
2023-05-12T08:40:29.068Z,95803.31
2023-05-12T08:43:08.618Z,95807.69
2023-05-12T08:45:39.223Z,95814.06
2023-05-12T08:48:12.044Z,95811.22
2023-05-12T08:50:43.990Z,95804.47
2023-05-12T08:53:14.776Z,95804.28
2023-05-12T08:55:54.213Z,95803.34
2023-05-12T08:58:41.013Z,95807.31
2023-05-12T09:01:14.697Z,95813.47
2023-05-12T09:03:43.371Z,95816.00
2023-05-12T09:06:13.232Z,95808.53
2023-05-12T09:08:42.213Z,95806.41
2023-05-12T09:11:13.558Z,95820.03
2023-05-12T09:13:51.506Z,95823.78
2023-05-12T09:16:24.203Z,95825.38
2023-05-12T09:18:54.033Z,95818.22
2023-05-12T09:21:24.456Z,95817.81
2023-05-12T09:23:56.848Z,95821.56
2023-05-12T09:26:25.881Z,95824.38
2023-05-12T09:28:55.906Z,95823.66
2023-05-12T09:31:26.084Z,95819.78
2023-05-12T09:33:54.087Z,95821.19
2023-05-12T09:36:25.034Z,95823.94
2023-05-12T09:39:04.674Z,95817.81
2023-05-12T09:41:35.874Z,95815.22
2023-05-12T09:44:04.364Z,95822.28
2023-05-12T09:46:32.303Z,95821.50
2023-05-12T09:49:01.030Z,95827.88
2023-05-12T09:51:32.180Z,95830.66
2023-05-12T09:54:00.352Z,95834.59
2023-05-12T09:56:31.423Z,95832.44
2023-05-12T09:59:00.055Z,95827.03
2023-05-12T10:01:28.633Z,95827.19
2023-05-12T10:03:58.921Z,95827.47
2023-05-12T10:06:29.297Z,95836.63
2023-05-12T10:09:07.501Z,95822.47
2023-05-12T10:11:36.311Z,95830.47
2023-05-12T10:14:04.899Z,95810.78
2023-05-12T10:16:44.509Z,95833.03
2023-05-12T10:19:15.046Z,95830.88
2023-05-12T10:21:46.111Z,95830.66
2023-05-12T10:24:16.287Z,95823.22
2023-05-12T10:26:45.661Z,95836.59
2023-05-12T10:29:17.058Z,95832.03
2023-05-12T10:31:46.392Z,95826.75
2023-05-12T10:34:19.182Z,95841.66
2023-05-12T10:36:49.274Z,95843.19
2023-05-12T10:39:19.963Z,95826.69
2023-05-12T10:41:47.916Z,95838.06
2023-05-12T10:44:15.793Z,95837.34
2023-05-12T10:46:43.685Z,95841.16
2023-05-12T10:49:15.523Z,95842.50
2023-05-12T10:51:50.661Z,95832.84
2023-05-12T10:54:26.772Z,95845.44
2023-05-12T10:57:00.051Z,95835.75
2023-05-12T10:59:28.759Z,95843.84
2023-05-12T11:02:03.815Z,95842.41
2023-05-12T11:04:47.000Z,95843.66
2023-05-12T11:07:18.927Z,95852.16
2023-05-12T11:09:58.634Z,95850.22
2023-05-12T11:12:29.166Z,95853.97
2023-05-12T11:14:57.053Z,95857.00
2023-05-12T11:17:25.498Z,95845.22
2023-05-12T11:19:53.598Z,95855.91
2023-05-12T11:22:23.337Z,95859.81
2023-05-12T11:24:53.520Z,95857.75
2023-05-12T11:27:23.814Z,95857.03
2023-05-12T11:29:59.953Z,95855.81
2023-05-12T11:32:29.484Z,95860.09
2023-05-12T11:34:58.517Z,95866.84
2023-05-12T11:37:26.514Z,95870.97
2023-05-12T11:39:55.710Z,95870.16
2023-05-12T11:42:25.757Z,95871.88
2023-05-12T11:44:55.459Z,95872.78
2023-05-12T11:47:23.510Z,95869.66
2023-05-12T11:49:52.915Z,95873.75
2023-05-12T11:52:22.615Z,95884.47
2023-05-12T11:54:52.106Z,95878.50
2023-05-12T11:57:28.536Z,95880.84
2023-05-12T12:00:01.290Z,95876.69
2023-05-12T12:02:29.755Z,95881.03
2023-05-12T12:04:58.380Z,95884.22
2023-05-12T12:07:30.192Z,95884.56
2023-05-12T12:09:58.126Z,95885.44
2023-05-12T12:12:27.284Z,95887.78
2023-05-12T12:14:59.937Z,95895.03
2023-05-12T12:17:30.752Z,95893.19
2023-05-12T12:19:58.924Z,95901.81
2023-05-12T12:22:26.918Z,95889.94
2023-05-12T12:24:54.754Z,95900.06
2023-05-12T12:27:22.582Z,95894.53
2023-05-12T12:29:51.915Z,95894.78
2023-05-12T12:32:19.768Z,95893.03
2023-05-12T12:34:49.111Z,95892.81
2023-05-12T12:37:19.821Z,95894.25
2023-05-12T12:39:48.130Z,95896.66
2023-05-12T12:42:16.572Z,95893.13
2023-05-12T12:44:46.080Z,95891.16
2023-05-12T12:47:15.403Z,95887.69
2023-05-12T12:49:43.425Z,95886.53
2023-05-12T12:52:11.422Z,95893.63
2023-05-12T12:54:39.257Z,95877.72
2023-05-12T12:57:07.220Z,95891.22
2023-05-12T12:59:34.993Z,95885.81
2023-05-12T13:02:05.267Z,95897.56
2023-05-12T13:04:34.516Z,95901.41
2023-05-12T13:07:02.391Z,95894.31
2023-05-12T13:09:30.232Z,95880.81
2023-05-12T13:11:58.305Z,95877.97
2023-05-12T13:14:26.283Z,95894.84
2023-05-12T13:16:54.172Z,95896.63
2023-05-12T13:19:22.740Z,95898.75
2023-05-12T13:21:51.968Z,95892.66
2023-05-12T13:24:19.794Z,95902.56
2023-05-12T13:26:47.664Z,95903.13
2023-05-12T13:29:15.522Z,95894.25
2023-05-12T13:31:43.808Z,95899.34
2023-05-12T13:34:11.627Z,95898.69
2023-05-12T13:36:40.016Z,95900.34
2023-05-12T13:39:10.154Z,95900.09
2023-05-12T13:41:40.526Z,95895.66
2023-05-12T13:44:08.468Z,95883.00
2023-05-12T13:46:36.546Z,95896.53
2023-05-12T13:49:04.955Z,95872.78
2023-05-12T13:51:32.977Z,95891.09
2023-05-12T13:54:02.582Z,95896.06
2023-05-12T13:56:34.581Z,95891.63
2023-05-12T13:59:02.377Z,95895.84
2023-05-12T14:01:31.974Z,95895.34
2023-05-12T14:03:59.825Z,95898.22
2023-05-12T14:06:27.682Z,95897.81
2023-05-12T14:08:55.514Z,95879.38
2023-05-12T14:11:23.741Z,95894.41
2023-05-12T14:13:56.121Z,95893.50
2023-05-12T14:16:23.982Z,95903.94
2023-05-12T14:18:51.890Z,95893.13
2023-05-12T14:21:20.397Z,95906.44
2023-05-12T14:23:51.026Z,95899.31
2023-05-12T14:26:19.764Z,95896.25
2023-05-12T14:28:47.691Z,95911.84
2023-05-12T14:31:17.298Z,95893.06
2023-05-12T14:33:45.232Z,95917.13
2023-05-12T14:36:13.083Z,95909.59
2023-05-12T14:38:41.058Z,95913.41
2023-05-12T14:41:09.633Z,95909.81
2023-05-12T14:43:38.336Z,95903.47
2023-05-12T14:46:07.214Z,95916.16
2023-05-12T14:48:36.460Z,95913.06
2023-05-12T14:51:04.400Z,95911.66
2023-05-12T14:53:32.282Z,95913.13
2023-05-12T14:56:00.196Z,95924.75
2023-05-12T14:58:28.103Z,95933.03
2023-05-12T15:00:55.956Z,95926.13
2023-05-12T15:03:24.773Z,95915.78
2023-05-12T15:06:05.822Z,95927.69
2023-05-12T15:08:34.580Z,95935.63
2023-05-12T15:11:02.507Z,95938.09
2023-05-12T15:13:30.592Z,95942.50
2023-05-12T15:15:58.532Z,95940.19
2023-05-12T15:18:26.423Z,95934.75
2023-05-12T15:20:55.722Z,95946.63
2023-05-12T15:23:23.670Z,95943.13
2023-05-12T15:25:51.559Z,95936.25
2023-05-12T15:28:19.446Z,95937.75
2023-05-12T15:30:55.777Z,95925.88
2023-05-12T15:33:23.946Z,95942.47
2023-05-12T15:35:52.044Z,95946.38
2023-05-12T15:38:21.847Z,95953.81
2023-05-12T15:40:49.897Z,95946.97
2023-05-12T15:43:18.171Z,95943.25
2023-05-12T15:45:46.139Z,95950.31
2023-05-12T15:48:14.029Z,95944.25
2023-05-12T15:50:41.947Z,95940.56
2023-05-12T15:53:09.994Z,95936.19
2023-05-12T15:55:39.196Z,95939.91
2023-05-12T15:58:08.282Z,95939.03
2023-05-12T16:00:36.244Z,95941.03
2023-05-12T16:03:04.166Z,95953.50
2023-05-12T16:05:34.036Z,95921.94
2023-05-12T16:08:01.870Z,95938.13
2023-05-12T16:10:29.718Z,95937.22
2023-05-12T16:12:58.936Z,95933.09
2023-05-12T16:15:27.301Z,95940.47
2023-05-12T16:17:55.228Z,95933.19
2023-05-12T16:20:23.136Z,95937.22
2023-05-12T16:22:51.261Z,95940.06
2023-05-12T16:25:21.854Z,95938.97
2023-05-12T16:27:49.891Z,95933.81
2023-05-12T16:30:20.297Z,95934.16
2023-05-12T16:32:48.470Z,95939.19
2023-05-12T16:35:16.453Z,95937.09
2023-05-12T16:37:44.376Z,95937.50
2023-05-12T16:40:12.658Z,95943.44
2023-05-12T16:42:40.702Z,95934.03
2023-05-12T16:45:10.856Z,95933.28
2023-05-12T16:47:40.208Z,95939.69
2023-05-12T16:50:09.630Z,95943.91
2023-05-12T16:52:46.737Z,95945.44
2023-05-12T16:55:14.574Z,95938.75
2023-05-12T16:57:43.522Z,95947.22
2023-05-12T17:00:12.690Z,95946.38
2023-05-12T17:02:42.025Z,95953.75
2023-05-12T17:05:10.118Z,95953.00
2023-05-12T17:07:37.997Z,95959.69
2023-05-12T17:10:06.717Z,95950.66
2023-05-12T17:12:34.620Z,95961.91
2023-05-12T17:15:07.399Z,95959.56
2023-05-12T17:17:35.753Z,95970.28
2023-05-12T17:20:06.065Z,95970.72
2023-05-12T17:22:36.985Z,95975.88
2023-05-12T17:25:05.327Z,95965.66
2023-05-12T17:27:33.240Z,95967.69
2023-05-12T17:30:01.208Z,95966.97
2023-05-12T17:32:29.073Z,95970.91
2023-05-12T17:34:57.542Z,95973.34
2023-05-12T17:37:27.015Z,95967.75
2023-05-12T17:39:55.090Z,95970.56
2023-05-12T17:42:23.316Z,95970.94
2023-05-12T17:44:51.511Z,95968.19
2023-05-12T17:47:19.360Z,95972.59
2023-05-12T17:49:51.806Z,95972.19
2023-05-12T17:52:19.976Z,95984.47
2023-05-12T17:54:49.823Z,95978.13
2023-05-12T17:57:17.967Z,95981.28
2023-05-12T17:59:45.812Z,95992.34
2023-05-12T18:02:14.276Z,95985.59
2023-05-12T18:04:42.122Z,95990.81
2023-05-12T18:07:09.967Z,95991.22
2023-05-12T18:09:37.783Z,95983.75
2023-05-12T18:12:08.294Z,95989.28
2023-05-12T18:14:36.188Z,95991.25
2023-05-12T18:17:04.132Z,95989.66
2023-05-12T18:19:32.144Z,95993.22
2023-05-12T18:22:00.063Z,95988.44
2023-05-12T18:24:27.878Z,95989.25
2023-05-12T18:26:57.682Z,95989.22
2023-05-12T18:29:26.992Z,96008.22
2023-05-12T18:31:55.063Z,95990.75
2023-05-12T18:34:23.041Z,95993.56
2023-05-12T18:36:50.857Z,96001.84
2023-05-12T18:39:18.789Z,95993.53
2023-05-12T18:41:47.146Z,95997.81
2023-05-12T18:44:15.060Z,95996.63
2023-05-12T18:46:45.041Z,95993.03
2023-05-12T18:49:13.033Z,96004.94
2023-05-12T18:51:40.885Z,95995.88
2023-05-12T18:54:08.725Z,96008.13
2023-05-12T18:56:36.934Z,96009.28
2023-05-12T18:59:04.786Z,96013.63
2023-05-12T19:01:34.135Z,96011.16
2023-05-12T19:04:03.677Z,96019.88
2023-05-12T19:06:32.686Z,96020.69
2023-05-12T19:09:00.592Z,96016.88
2023-05-12T19:11:28.564Z,96012.44
2023-05-12T19:13:56.492Z,96014.09
2023-05-12T19:16:24.680Z,96026.38
2023-05-12T19:18:52.753Z,96021.25
2023-05-12T19:21:22.018Z,96031.50
2023-05-12T19:23:49.972Z,96022.44
2023-05-12T19:26:17.908Z,96032.75
2023-05-12T19:28:45.781Z,96031.16
2023-05-12T19:31:13.850Z,96035.91
2023-05-12T19:33:41.878Z,96031.09
2023-05-12T19:36:11.858Z,96036.31
2023-05-12T19:38:44.182Z,96033.94
2023-05-12T19:41:12.216Z,96046.16
2023-05-12T19:43:40.072Z,96042.25
2023-05-12T19:46:08.109Z,96039.84
2023-05-12T19:48:36.102Z,96033.53
2023-05-12T19:51:04.082Z,96050.63
2023-05-12T19:53:31.969Z,96033.16
2023-05-12T19:56:01.284Z,96035.56
2023-05-12T19:58:29.126Z,96036.78
2023-05-12T20:00:57.497Z,96034.00
2023-05-12T20:03:25.460Z,96035.94
2023-05-12T20:05:53.573Z,96035.16
2023-05-12T20:08:21.439Z,96032.44
2023-05-12T20:10:49.311Z,96036.81
2023-05-12T20:13:18.557Z,96026.53
2023-05-12T20:15:46.777Z,96039.56
2023-05-12T20:18:15.712Z,96036.78
2023-05-12T20:20:43.721Z,96039.16
2023-05-12T20:23:13.711Z,96043.13
2023-05-12T20:25:41.576Z,96039.19
2023-05-12T20:28:09.551Z,96043.88
2023-05-12T20:30:39.058Z,96049.06
2023-05-12T20:33:06.975Z,96043.94
2023-05-12T20:35:34.804Z,96049.47
2023-05-12T20:38:03.236Z,96041.59
2023-05-12T20:40:31.115Z,96041.53
2023-05-12T20:42:58.982Z,96041.13
2023-05-12T20:45:26.821Z,96049.44
2023-05-12T20:47:56.114Z,96044.75
2023-05-12T20:50:24.368Z,96035.25
2023-05-12T20:52:52.227Z,96041.19
2023-05-12T20:55:20.234Z,96040.38
2023-05-12T20:57:48.254Z,96044.72
2023-05-12T21:00:17.200Z,96034.50
2023-05-12T21:02:45.449Z,96036.88
2023-05-12T21:05:15.067Z,96040.03
2023-05-12T21:07:42.929Z,96040.03
2023-05-12T21:10:11.517Z,96036.47
2023-05-12T21:12:39.506Z,96038.06
2023-05-12T21:15:11.378Z,96029.34
2023-05-12T21:17:40.067Z,96035.31
2023-05-12T21:20:10.342Z,96044.06
2023-05-12T21:22:41.428Z,96036.91
2023-05-12T21:25:10.012Z,96034.94
2023-05-12T21:27:40.284Z,96040.94
2023-05-12T21:30:09.802Z,96041.69
2023-05-12T21:32:37.904Z,96049.63
2023-05-12T21:35:06.779Z,96050.44
2023-05-12T21:37:34.887Z,96036.97
2023-05-12T21:40:05.019Z,96045.69
2023-05-12T21:42:32.891Z,96042.53
2023-05-12T21:45:00.725Z,96044.88
